sensor_id;sensor_type;location;lat;lon;timestamp;P1;durP1;ratioP1;P2;durP2;ratioP2
33413;SDS011;60055;41.884;12.534;2022-11-14T00:00:37;9.15;;;5.88;;
33413;SDS011;60055;41.884;12.534;2022-11-14T00:03:05;9.60;;;5.78;;
33413;SDS011;60055;41.884;12.534;2022-11-14T00:05:32;9.55;;;5.78;;
33413;SDS011;60055;41.884;12.534;2022-11-14T00:08:02;9.80;;;6.30;;
33413;SDS011;60055;41.884;12.534;2022-11-14T00:10:28;10.70;;;6.57;;
33413;SDS011;60055;41.884;12.534;2022-11-14T00:12:55;12.57;;;6.97;;
33413;SDS011;60055;41.884;12.534;2022-11-14T00:15:20;9.20;;;6.47;;
33413;SDS011;60055;41.884;12.534;2022-11-14T00:17:46;10.43;;;6.55;;
33413;SDS011;60055;41.884;12.534;2022-11-14T00:20:13;10.45;;;6.70;;
33413;SDS011;60055;41.884;12.534;2022-11-14T00:22:39;12.40;;;7.07;;
33413;SDS011;60055;41.884;12.534;2022-11-14T00:25:05;13.52;;;7.07;;
33413;SDS011;60055;41.884;12.534;2022-11-14T00:27:31;13.38;;;7.10;;
33413;SDS011;60055;41.884;12.534;2022-11-14T00:29:57;12.55;;;7.53;;
33413;SDS011;60055;41.884;12.534;2022-11-14T00:32:23;10.80;;;7.30;;
33413;SDS011;60055;41.884;12.534;2022-11-14T00:34:49;11.75;;;7.65;;
33413;SDS011;60055;41.884;12.534;2022-11-14T00:37:15;13.18;;;8.38;;
33413;SDS011;60055;41.884;12.534;2022-11-14T00:39:41;13.98;;;7.53;;
33413;SDS011;60055;41.884;12.534;2022-11-14T00:42:07;13.55;;;8.00;;
33413;SDS011;60055;41.884;12.534;2022-11-14T00:44:32;11.07;;;7.30;;
33413;SDS011;60055;41.884;12.534;2022-11-14T00:46:58;12.20;;;7.72;;
33413;SDS011;60055;41.884;12.534;2022-11-14T00:49:24;12.32;;;8.45;;
33413;SDS011;60055;41.884;12.534;2022-11-14T00:51:53;11.50;;;7.60;;
33413;SDS011;60055;41.884;12.534;2022-11-14T00:54:20;12.63;;;8.48;;
33413;SDS011;60055;41.884;12.534;2022-11-14T00:56:45;13.93;;;7.60;;
33413;SDS011;60055;41.884;12.534;2022-11-14T00:59:11;13.00;;;7.85;;
33413;SDS011;60055;41.884;12.534;2022-11-14T01:01:37;13.60;;;8.50;;
33413;SDS011;60055;41.884;12.534;2022-11-14T01:04:03;13.35;;;8.82;;
33413;SDS011;60055;41.884;12.534;2022-11-14T01:06:30;11.70;;;7.82;;
33413;SDS011;60055;41.884;12.534;2022-11-14T01:09:01;13.57;;;9.33;;
33413;SDS011;60055;41.884;12.534;2022-11-14T01:11:28;13.82;;;9.13;;
33413;SDS011;60055;41.884;12.534;2022-11-14T01:13:54;13.82;;;9.23;;
33413;SDS011;60055;41.884;12.534;2022-11-14T01:16:20;15.20;;;9.90;;
33413;SDS011;60055;41.884;12.534;2022-11-14T01:18:51;16.77;;;9.93;;
33413;SDS011;60055;41.884;12.534;2022-11-14T01:21:17;16.63;;;11.10;;
33413;SDS011;60055;41.884;12.534;2022-11-14T01:23:43;18.15;;;12.60;;
33413;SDS011;60055;41.884;12.534;2022-11-14T01:26:11;18.15;;;11.88;;
33413;SDS011;60055;41.884;12.534;2022-11-14T01:28:38;20.35;;;13.50;;
33413;SDS011;60055;41.884;12.534;2022-11-14T01:31:18;22.77;;;14.88;;
33413;SDS011;60055;41.884;12.534;2022-11-14T01:33:48;23.85;;;14.60;;
33413;SDS011;60055;41.884;12.534;2022-11-14T01:36:27;19.88;;;14.68;;
33413;SDS011;60055;41.884;12.534;2022-11-14T01:38:53;22.95;;;14.85;;
33413;SDS011;60055;41.884;12.534;2022-11-14T01:41:19;23.35;;;15.48;;
33413;SDS011;60055;41.884;12.534;2022-11-14T01:43:46;23.90;;;15.45;;
33413;SDS011;60055;41.884;12.534;2022-11-14T01:46:16;23.42;;;14.02;;
33413;SDS011;60055;41.884;12.534;2022-11-14T01:48:51;21.25;;;14.30;;
33413;SDS011;60055;41.884;12.534;2022-11-14T01:51:30;23.55;;;13.63;;
33413;SDS011;60055;41.884;12.534;2022-11-14T01:53:59;24.02;;;14.05;;
33413;SDS011;60055;41.884;12.534;2022-11-14T01:56:31;21.58;;;13.40;;
33413;SDS011;60055;41.884;12.534;2022-11-14T01:59:04;21.27;;;12.95;;
33413;SDS011;60055;41.884;12.534;2022-11-14T02:01:33;21.38;;;13.75;;
33413;SDS011;60055;41.884;12.534;2022-11-14T02:04:01;18.98;;;12.95;;
33413;SDS011;60055;41.884;12.534;2022-11-14T02:06:39;20.00;;;12.63;;
33413;SDS011;60055;41.884;12.534;2022-11-14T02:09:06;18.88;;;12.60;;
33413;SDS011;60055;41.884;12.534;2022-11-14T02:11:35;21.60;;;12.45;;
33413;SDS011;60055;41.884;12.534;2022-11-14T02:14:07;18.27;;;12.48;;
33413;SDS011;60055;41.884;12.534;2022-11-14T02:16:33;18.48;;;12.52;;
33413;SDS011;60055;41.884;12.534;2022-11-14T02:19:03;17.70;;;13.20;;
33413;SDS011;60055;41.884;12.534;2022-11-14T02:21:29;17.80;;;12.82;;
33413;SDS011;60055;41.884;12.534;2022-11-14T02:23:58;20.60;;;13.68;;
33413;SDS011;60055;41.884;12.534;2022-11-14T02:26:33;23.25;;;14.43;;
33413;SDS011;60055;41.884;12.534;2022-11-14T02:29:02;22.52;;;13.48;;
33413;SDS011;60055;41.884;12.534;2022-11-14T02:31:29;20.52;;;13.40;;
33413;SDS011;60055;41.884;12.534;2022-11-14T02:33:56;18.95;;;13.15;;
33413;SDS011;60055;41.884;12.534;2022-11-14T02:36:21;22.08;;;13.85;;
33413;SDS011;60055;41.884;12.534;2022-11-14T02:38:50;18.83;;;14.10;;
33413;SDS011;60055;41.884;12.534;2022-11-14T02:41:16;19.60;;;13.43;;
33413;SDS011;60055;41.884;12.534;2022-11-14T02:43:48;20.15;;;12.90;;
33413;SDS011;60055;41.884;12.534;2022-11-14T02:46:19;22.40;;;13.60;;
33413;SDS011;60055;41.884;12.534;2022-11-14T02:48:51;21.10;;;13.40;;
33413;SDS011;60055;41.884;12.534;2022-11-14T02:51:19;21.40;;;12.48;;
33413;SDS011;60055;41.884;12.534;2022-11-14T02:53:45;18.85;;;11.35;;
33413;SDS011;60055;41.884;12.534;2022-11-14T02:56:11;16.48;;;11.15;;
33413;SDS011;60055;41.884;12.534;2022-11-14T02:58:40;18.08;;;11.52;;
33413;SDS011;60055;41.884;12.534;2022-11-14T03:01:09;20.63;;;11.70;;
33413;SDS011;60055;41.884;12.534;2022-11-14T03:04:03;13.77;;;10.40;;
33413;SDS011;60055;41.884;12.534;2022-11-14T03:06:29;16.63;;;10.93;;
33413;SDS011;60055;41.884;12.534;2022-11-14T03:08:55;17.73;;;10.88;;
33413;SDS011;60055;41.884;12.534;2022-11-14T03:11:23;16.10;;;11.25;;
33413;SDS011;60055;41.884;12.534;2022-11-14T03:13:49;15.70;;;10.27;;
33413;SDS011;60055;41.884;12.534;2022-11-14T03:16:26;15.77;;;10.60;;
33413;SDS011;60055;41.884;12.534;2022-11-14T03:21:59;18.48;;;10.68;;
33413;SDS011;60055;41.884;12.534;2022-11-14T03:24:28;18.05;;;10.60;;
33413;SDS011;60055;41.884;12.534;2022-11-14T03:30:02;17.17;;;10.32;;
33413;SDS011;60055;41.884;12.534;2022-11-14T03:32:44;19.52;;;10.40;;
33413;SDS011;60055;41.884;12.534;2022-11-14T03:35:18;16.20;;;10.55;;
33413;SDS011;60055;41.884;12.534;2022-11-14T03:37:50;16.08;;;9.90;;
33413;SDS011;60055;41.884;12.534;2022-11-14T03:40:16;13.93;;;9.80;;
33413;SDS011;60055;41.884;12.534;2022-11-14T03:42:45;15.57;;;9.60;;
33413;SDS011;60055;41.884;12.534;2022-11-14T03:45:20;14.60;;;9.70;;
33413;SDS011;60055;41.884;12.534;2022-11-14T03:47:49;13.15;;;8.70;;
33413;SDS011;60055;41.884;12.534;2022-11-14T03:53:02;15.00;;;9.07;;
33413;SDS011;60055;41.884;12.534;2022-11-14T03:55:28;11.38;;;8.63;;
33413;SDS011;60055;41.884;12.534;2022-11-14T03:57:59;14.63;;;8.63;;
33413;SDS011;60055;41.884;12.534;2022-11-14T04:00:25;17.23;;;8.63;;
33413;SDS011;60055;41.884;12.534;2022-11-14T04:02:55;14.88;;;8.65;;
33413;SDS011;60055;41.884;12.534;2022-11-14T04:05:23;11.88;;;7.35;;
33413;SDS011;60055;41.884;12.534;2022-11-14T04:08:13;12.07;;;8.38;;
33413;SDS011;60055;41.884;12.534;2022-11-14T04:10:45;13.93;;;8.35;;
33413;SDS011;60055;41.884;12.534;2022-11-14T04:13:12;11.43;;;8.38;;
33413;SDS011;60055;41.884;12.534;2022-11-14T04:15:43;11.63;;;8.07;;
33413;SDS011;60055;41.884;12.534;2022-11-14T04:18:12;14.80;;;8.73;;
33413;SDS011;60055;41.884;12.534;2022-11-14T04:20:42;14.15;;;8.43;;
33413;SDS011;60055;41.884;12.534;2022-11-14T04:25:58;14.57;;;7.90;;
33413;SDS011;60055;41.884;12.534;2022-11-14T04:28:30;9.90;;;6.75;;
33413;SDS011;60055;41.884;12.534;2022-11-14T04:31:08;13.60;;;8.27;;
33413;SDS011;60055;41.884;12.534;2022-11-14T04:33:36;14.77;;;8.07;;
33413;SDS011;60055;41.884;12.534;2022-11-14T04:36:08;12.88;;;7.30;;
33413;SDS011;60055;41.884;12.534;2022-11-14T04:38:33;11.38;;;7.18;;
33413;SDS011;60055;41.884;12.534;2022-11-14T04:41:03;10.05;;;6.90;;
33413;SDS011;60055;41.884;12.534;2022-11-14T04:43:29;9.77;;;6.93;;
33413;SDS011;60055;41.884;12.534;2022-11-14T04:45:57;11.80;;;6.53;;
33413;SDS011;60055;41.884;12.534;2022-11-14T04:48:23;9.93;;;6.93;;
33413;SDS011;60055;41.884;12.534;2022-11-14T04:50:50;10.10;;;6.50;;
33413;SDS011;60055;41.884;12.534;2022-11-14T04:53:16;9.73;;;6.75;;
33413;SDS011;60055;41.884;12.534;2022-11-14T04:55:42;10.90;;;6.70;;
33413;SDS011;60055;41.884;12.534;2022-11-14T04:58:09;9.10;;;7.07;;
33413;SDS011;60055;41.884;12.534;2022-11-14T05:00:35;9.13;;;6.78;;
33413;SDS011;60055;41.884;12.534;2022-11-14T05:03:01;11.15;;;6.57;;
33413;SDS011;60055;41.884;12.534;2022-11-14T05:05:27;9.48;;;6.90;;
33413;SDS011;60055;41.884;12.534;2022-11-14T05:07:53;8.98;;;6.28;;
33413;SDS011;60055;41.884;12.534;2022-11-14T05:10:19;10.38;;;7.20;;
33413;SDS011;60055;41.884;12.534;2022-11-14T05:12:45;14.00;;;6.60;;
33413;SDS011;60055;41.884;12.534;2022-11-14T05:15:11;9.25;;;6.18;;
33413;SDS011;60055;41.884;12.534;2022-11-14T05:17:38;9.88;;;6.63;;
33413;SDS011;60055;41.884;12.534;2022-11-14T05:20:05;8.43;;;6.55;;
33413;SDS011;60055;41.884;12.534;2022-11-14T05:22:31;9.52;;;6.25;;
33413;SDS011;60055;41.884;12.534;2022-11-14T05:24:56;10.88;;;6.75;;
33413;SDS011;60055;41.884;12.534;2022-11-14T05:27:22;11.50;;;7.00;;
33413;SDS011;60055;41.884;12.534;2022-11-14T05:29:47;11.40;;;7.38;;
33413;SDS011;60055;41.884;12.534;2022-11-14T05:32:14;12.85;;;7.55;;
33413;SDS011;60055;41.884;12.534;2022-11-14T05:34:41;11.25;;;7.28;;
33413;SDS011;60055;41.884;12.534;2022-11-14T05:37:10;11.43;;;6.68;;
33413;SDS011;60055;41.884;12.534;2022-11-14T05:39:48;8.63;;;6.65;;
33413;SDS011;60055;41.884;12.534;2022-11-14T05:42:15;8.48;;;5.78;;
33413;SDS011;60055;41.884;12.534;2022-11-14T05:44:42;7.93;;;5.43;;
33413;SDS011;60055;41.884;12.534;2022-11-14T05:47:07;9.70;;;5.90;;
33413;SDS011;60055;41.884;12.534;2022-11-14T05:49:33;9.98;;;5.30;;
33413;SDS011;60055;41.884;12.534;2022-11-14T05:51:59;7.45;;;5.55;;
33413;SDS011;60055;41.884;12.534;2022-11-14T05:54:24;10.98;;;6.60;;
33413;SDS011;60055;41.884;12.534;2022-11-14T05:56:50;10.50;;;6.28;;
33413;SDS011;60055;41.884;12.534;2022-11-14T05:59:17;7.70;;;5.65;;
33413;SDS011;60055;41.884;12.534;2022-11-14T06:01:44;8.25;;;5.43;;
33413;SDS011;60055;41.884;12.534;2022-11-14T06:04:10;7.18;;;5.30;;
33413;SDS011;60055;41.884;12.534;2022-11-14T06:06:38;8.20;;;5.43;;
33413;SDS011;60055;41.884;12.534;2022-11-14T06:09:04;9.38;;;5.60;;
33413;SDS011;60055;41.884;12.534;2022-11-14T06:11:30;7.88;;;6.03;;
33413;SDS011;60055;41.884;12.534;2022-11-14T06:13:55;7.10;;;5.43;;
33413;SDS011;60055;41.884;12.534;2022-11-14T06:16:21;8.48;;;5.40;;
33413;SDS011;60055;41.884;12.534;2022-11-14T06:18:47;12.27;;;5.80;;
33413;SDS011;60055;41.884;12.534;2022-11-14T06:21:25;9.57;;;5.55;;
33413;SDS011;60055;41.884;12.534;2022-11-14T06:23:52;7.55;;;5.53;;
33413;SDS011;60055;41.884;12.534;2022-11-14T06:26:21;7.75;;;5.63;;
33413;SDS011;60055;41.884;12.534;2022-11-14T06:28:55;7.45;;;5.22;;
33413;SDS011;60055;41.884;12.534;2022-11-14T06:31:22;7.35;;;5.15;;
33413;SDS011;60055;41.884;12.534;2022-11-14T06:33:48;7.35;;;5.57;;
33413;SDS011;60055;41.884;12.534;2022-11-14T06:36:18;7.97;;;5.38;;
33413;SDS011;60055;41.884;12.534;2022-11-14T06:38:44;8.52;;;5.75;;
33413;SDS011;60055;41.884;12.534;2022-11-14T06:41:11;6.38;;;5.13;;
33413;SDS011;60055;41.884;12.534;2022-11-14T06:43:44;8.65;;;5.13;;
33413;SDS011;60055;41.884;12.534;2022-11-14T06:46:11;6.53;;;4.82;;
33413;SDS011;60055;41.884;12.534;2022-11-14T06:48:41;7.35;;;4.95;;
33413;SDS011;60055;41.884;12.534;2022-11-14T06:51:15;9.43;;;5.40;;
33413;SDS011;60055;41.884;12.534;2022-11-14T06:53:46;8.07;;;5.25;;
33413;SDS011;60055;41.884;12.534;2022-11-14T06:56:14;7.82;;;4.90;;
33413;SDS011;60055;41.884;12.534;2022-11-14T06:58:43;8.73;;;5.30;;
33413;SDS011;60055;41.884;12.534;2022-11-14T07:01:14;6.70;;;5.13;;
33413;SDS011;60055;41.884;12.534;2022-11-14T07:03:40;9.13;;;4.90;;
33413;SDS011;60055;41.884;12.534;2022-11-14T07:06:07;6.70;;;4.88;;
33413;SDS011;60055;41.884;12.534;2022-11-14T07:08:36;8.07;;;5.00;;
33413;SDS011;60055;41.884;12.534;2022-11-14T07:11:06;9.68;;;4.90;;
33413;SDS011;60055;41.884;12.534;2022-11-14T07:13:33;8.63;;;5.00;;
33413;SDS011;60055;41.884;12.534;2022-11-14T07:16:00;7.15;;;4.80;;
33413;SDS011;60055;41.884;12.534;2022-11-14T07:18:29;7.55;;;4.95;;
33413;SDS011;60055;41.884;12.534;2022-11-14T07:21:03;10.50;;;5.28;;
33413;SDS011;60055;41.884;12.534;2022-11-14T07:23:30;8.30;;;4.97;;
33413;SDS011;60055;41.884;12.534;2022-11-14T07:26:03;9.90;;;5.32;;
33413;SDS011;60055;41.884;12.534;2022-11-14T07:28:34;7.13;;;5.07;;
33413;SDS011;60055;41.884;12.534;2022-11-14T07:31:04;8.02;;;5.22;;
33413;SDS011;60055;41.884;12.534;2022-11-14T07:33:31;7.32;;;5.30;;
33413;SDS011;60055;41.884;12.534;2022-11-14T07:36:01;8.13;;;5.65;;
33413;SDS011;60055;41.884;12.534;2022-11-14T07:38:28;7.93;;;5.28;;
33413;SDS011;60055;41.884;12.534;2022-11-14T07:40:56;8.10;;;5.35;;
33413;SDS011;60055;41.884;12.534;2022-11-14T07:43:28;8.98;;;5.35;;
33413;SDS011;60055;41.884;12.534;2022-11-14T07:46:00;15.13;;;5.55;;
33413;SDS011;60055;41.884;12.534;2022-11-14T07:48:28;5.15;;;4.28;;
33413;SDS011;60055;41.884;12.534;2022-11-14T07:51:01;7.50;;;4.50;;
33413;SDS011;60055;41.884;12.534;2022-11-14T07:53:29;6.50;;;4.32;;
33413;SDS011;60055;41.884;12.534;2022-11-14T07:55:55;8.80;;;4.07;;
33413;SDS011;60055;41.884;12.534;2022-11-14T07:58:29;7.07;;;4.28;;
33413;SDS011;60055;41.884;12.534;2022-11-14T08:01:00;5.78;;;4.55;;
33413;SDS011;60055;41.884;12.534;2022-11-14T08:03:30;7.00;;;5.05;;
33413;SDS011;60055;41.884;12.534;2022-11-14T08:06:05;9.73;;;4.80;;
33413;SDS011;60055;41.884;12.534;2022-11-14T08:09:08;6.47;;;4.20;;
33413;SDS011;60055;41.884;12.534;2022-11-14T08:11:34;6.35;;;3.72;;
33413;SDS011;60055;41.884;12.534;2022-11-14T08:14:12;5.85;;;3.97;;
33413;SDS011;60055;41.884;12.534;2022-11-14T08:16:40;8.23;;;3.78;;
33413;SDS011;60055;41.884;12.534;2022-11-14T08:19:15;7.65;;;3.70;;
33413;SDS011;60055;41.884;12.534;2022-11-14T08:21:42;5.43;;;3.75;;
33413;SDS011;60055;41.884;12.534;2022-11-14T08:24:08;5.75;;;3.90;;
33413;SDS011;60055;41.884;12.534;2022-11-14T08:26:39;5.72;;;3.67;;
33413;SDS011;60055;41.884;12.534;2022-11-14T08:29:05;7.07;;;4.13;;
33413;SDS011;60055;41.884;12.534;2022-11-14T08:31:31;7.32;;;4.22;;
33413;SDS011;60055;41.884;12.534;2022-11-14T08:36:50;8.05;;;4.63;;
33413;SDS011;60055;41.884;12.534;2022-11-14T08:39:17;7.45;;;4.78;;
33413;SDS011;60055;41.884;12.534;2022-11-14T08:41:47;6.93;;;4.13;;
33413;SDS011;60055;41.884;12.534;2022-11-14T08:44:13;9.68;;;4.60;;
33413;SDS011;60055;41.884;12.534;2022-11-14T08:46:41;6.63;;;4.70;;
33413;SDS011;60055;41.884;12.534;2022-11-14T08:49:10;10.55;;;4.15;;
33413;SDS011;60055;41.884;12.534;2022-11-14T08:51:40;11.48;;;4.55;;
33413;SDS011;60055;41.884;12.534;2022-11-14T08:54:06;8.02;;;4.20;;
33413;SDS011;60055;41.884;12.534;2022-11-14T08:56:32;10.05;;;4.50;;
33413;SDS011;60055;41.884;12.534;2022-11-14T08:59:03;6.07;;;4.50;;
33413;SDS011;60055;41.884;12.534;2022-11-14T09:04:11;8.15;;;4.25;;
33413;SDS011;60055;41.884;12.534;2022-11-14T09:09:22;8.82;;;4.10;;
33413;SDS011;60055;41.884;12.534;2022-11-14T09:12:02;7.18;;;3.90;;
33413;SDS011;60055;41.884;12.534;2022-11-14T09:14:29;9.52;;;4.25;;
33413;SDS011;60055;41.884;12.534;2022-11-14T09:16:55;7.78;;;4.32;;
33413;SDS011;60055;41.884;12.534;2022-11-14T09:19:21;6.82;;;4.10;;
33413;SDS011;60055;41.884;12.534;2022-11-14T09:21:51;6.38;;;4.20;;
33413;SDS011;60055;41.884;12.534;2022-11-14T09:24:17;6.93;;;4.82;;
33413;SDS011;60055;41.884;12.534;2022-11-14T09:26:49;7.30;;;4.53;;
33413;SDS011;60055;41.884;12.534;2022-11-14T09:29:22;9.00;;;5.20;;
33413;SDS011;60055;41.884;12.534;2022-11-14T09:31:53;6.45;;;4.78;;
33413;SDS011;60055;41.884;12.534;2022-11-14T09:34:21;11.18;;;5.28;;
33413;SDS011;60055;41.884;12.534;2022-11-14T09:36:48;8.57;;;4.68;;
33413;SDS011;60055;41.884;12.534;2022-11-14T09:39:29;10.15;;;4.97;;
33413;SDS011;60055;41.884;12.534;2022-11-14T09:42:11;7.95;;;5.20;;
33413;SDS011;60055;41.884;12.534;2022-11-14T09:44:55;11.15;;;4.80;;
33413;SDS011;60055;41.884;12.534;2022-11-14T09:47:25;9.38;;;5.05;;
33413;SDS011;60055;41.884;12.534;2022-11-14T09:50:19;6.75;;;4.80;;
33413;SDS011;60055;41.884;12.534;2022-11-14T09:53:22;10.52;;;4.72;;
33413;SDS011;60055;41.884;12.534;2022-11-14T09:56:13;8.38;;;4.90;;
33413;SDS011;60055;41.884;12.534;2022-11-14T09:58:51;4.95;;;4.00;;
33413;SDS011;60055;41.884;12.534;2022-11-14T10:07:22;8.85;;;5.50;;
33413;SDS011;60055;41.884;12.534;2022-11-14T10:25:12;8.27;;;4.80;;
33413;SDS011;60055;41.884;12.534;2022-11-14T10:30:41;7.63;;;4.03;;
33413;SDS011;60055;41.884;12.534;2022-11-14T10:33:25;7.10;;;4.30;;
33413;SDS011;60055;41.884;12.534;2022-11-14T10:39:45;9.45;;;4.40;;
33413;SDS011;60055;41.884;12.534;2022-11-14T10:42:14;7.35;;;3.95;;
33413;SDS011;60055;41.884;12.534;2022-11-14T10:44:56;6.25;;;3.90;;
33413;SDS011;60055;41.884;12.534;2022-11-14T10:47:46;7.88;;;3.90;;
33413;SDS011;60055;41.884;12.534;2022-11-14T10:50:21;9.32;;;4.30;;
33413;SDS011;60055;41.884;12.534;2022-11-14T10:52:54;5.97;;;4.13;;
33413;SDS011;60055;41.884;12.534;2022-11-14T10:55:28;10.07;;;4.22;;
33413;SDS011;60055;41.884;12.534;2022-11-14T10:57:56;7.45;;;3.88;;
33413;SDS011;60055;41.884;12.534;2022-11-14T11:00:23;6.47;;;3.70;;
33413;SDS011;60055;41.884;12.534;2022-11-14T11:02:56;7.25;;;4.22;;
33413;SDS011;60055;41.884;12.534;2022-11-14T11:05:29;6.25;;;4.40;;
33413;SDS011;60055;41.884;12.534;2022-11-14T11:07:58;8.23;;;4.47;;
33413;SDS011;60055;41.884;12.534;2022-11-14T11:10:44;7.85;;;4.22;;
33413;SDS011;60055;41.884;12.534;2022-11-14T11:13:34;5.63;;;3.70;;
33413;SDS011;60055;41.884;12.534;2022-11-14T11:16:04;9.27;;;3.80;;
33413;SDS011;60055;41.884;12.534;2022-11-14T11:18:37;8.40;;;3.83;;
33413;SDS011;60055;41.884;12.534;2022-11-14T11:21:11;4.72;;;3.53;;
33413;SDS011;60055;41.884;12.534;2022-11-14T11:24:02;5.68;;;3.63;;
33413;SDS011;60055;41.884;12.534;2022-11-14T11:26:47;4.78;;;3.50;;
33413;SDS011;60055;41.884;12.534;2022-11-14T11:29:14;5.88;;;3.13;;
33413;SDS011;60055;41.884;12.534;2022-11-14T11:34:15;7.90;;;3.50;;
33413;SDS011;60055;41.884;12.534;2022-11-14T11:39:44;5.40;;;3.53;;
33413;SDS011;60055;41.884;12.534;2022-11-14T11:42:19;6.28;;;3.50;;
33413;SDS011;60055;41.884;12.534;2022-11-14T11:44:54;5.97;;;3.53;;
33413;SDS011;60055;41.884;12.534;2022-11-14T11:47:25;7.50;;;3.40;;
33413;SDS011;60055;41.884;12.534;2022-11-14T11:49:58;5.00;;;2.88;;
33413;SDS011;60055;41.884;12.534;2022-11-14T11:52:33;5.35;;;3.40;;
33413;SDS011;60055;41.884;12.534;2022-11-14T11:55:26;6.45;;;3.40;;
33413;SDS011;60055;41.884;12.534;2022-11-14T11:58:09;10.40;;;4.20;;
33413;SDS011;60055;41.884;12.534;2022-11-14T12:00:42;6.05;;;3.42;;
33413;SDS011;60055;41.884;12.534;2022-11-14T12:03:08;6.43;;;3.53;;
33413;SDS011;60055;41.884;12.534;2022-11-14T12:05:46;7.75;;;4.05;;
33413;SDS011;60055;41.884;12.534;2022-11-14T12:11:07;8.85;;;3.60;;
33413;SDS011;60055;41.884;12.534;2022-11-14T12:14:24;5.32;;;3.38;;
33413;SDS011;60055;41.884;12.534;2022-11-14T12:25:33;4.25;;;2.95;;
33413;SDS011;60055;41.884;12.534;2022-11-14T12:31:17;4.90;;;3.05;;
33413;SDS011;60055;41.884;12.534;2022-11-14T12:33:54;7.40;;;2.70;;
33413;SDS011;60055;41.884;12.534;2022-11-14T12:36:26;3.83;;;2.80;;
33413;SDS011;60055;41.884;12.534;2022-11-14T12:38:55;3.97;;;2.60;;
33413;SDS011;60055;41.884;12.534;2022-11-14T12:41:24;4.53;;;2.90;;
33413;SDS011;60055;41.884;12.534;2022-11-14T12:47:19;9.70;;;2.88;;
33413;SDS011;60055;41.884;12.534;2022-11-14T12:57:55;4.05;;;2.67;;
33413;SDS011;60055;41.884;12.534;2022-11-14T13:00:31;5.55;;;2.90;;
33413;SDS011;60055;41.884;12.534;2022-11-14T13:05:43;4.07;;;2.85;;
33413;SDS011;60055;41.884;12.534;2022-11-14T13:11:31;5.10;;;2.95;;
33413;SDS011;60055;41.884;12.534;2022-11-14T13:14:18;3.70;;;2.85;;
33413;SDS011;60055;41.884;12.534;2022-11-14T13:20:24;8.35;;;3.80;;
33413;SDS011;60055;41.884;12.534;2022-11-14T13:28:50;5.07;;;2.80;;
33413;SDS011;60055;41.884;12.534;2022-11-14T13:31:22;3.80;;;2.40;;
33413;SDS011;60055;41.884;12.534;2022-11-14T13:34:48;4.38;;;3.05;;
33413;SDS011;60055;41.884;12.534;2022-11-14T13:36:55;5.75;;;2.83;;
33413;SDS011;60055;41.884;12.534;2022-11-14T13:39:44;3.33;;;2.60;;
33413;SDS011;60055;41.884;12.534;2022-11-14T13:42:31;4.32;;;2.70;;
33413;SDS011;60055;41.884;12.534;2022-11-14T13:50:53;6.43;;;3.30;;
33413;SDS011;60055;41.884;12.534;2022-11-14T13:53:41;5.93;;;2.80;;
33413;SDS011;60055;41.884;12.534;2022-11-14T13:59:18;4.55;;;3.17;;
33413;SDS011;60055;41.884;12.534;2022-11-14T14:05:21;7.13;;;3.33;;
33413;SDS011;60055;41.884;12.534;2022-11-14T14:19:36;6.05;;;3.15;;
33413;SDS011;60055;41.884;12.534;2022-11-14T14:22:46;7.47;;;3.22;;
33413;SDS011;60055;41.884;12.534;2022-11-14T14:31:19;6.10;;;3.10;;
33413;SDS011;60055;41.884;12.534;2022-11-14T14:33:47;6.28;;;2.83;;
33413;SDS011;60055;41.884;12.534;2022-11-14T14:36:19;6.90;;;3.17;;
33413;SDS011;60055;41.884;12.534;2022-11-14T14:38:50;4.75;;;3.00;;
33413;SDS011;60055;41.884;12.534;2022-11-14T14:41:35;5.80;;;3.28;;
33413;SDS011;60055;41.884;12.534;2022-11-14T14:44:05;5.97;;;3.35;;
33413;SDS011;60055;41.884;12.534;2022-11-14T14:47:15;7.03;;;2.80;;
33413;SDS011;60055;41.884;12.534;2022-11-14T14:50:01;5.05;;;3.10;;
33413;SDS011;60055;41.884;12.534;2022-11-14T14:52:38;5.75;;;3.20;;
33413;SDS011;60055;41.884;12.534;2022-11-14T14:55:21;6.28;;;2.95;;
33413;SDS011;60055;41.884;12.534;2022-11-14T15:01:03;8.48;;;4.50;;
33413;SDS011;60055;41.884;12.534;2022-11-14T15:03:39;4.88;;;3.28;;
33413;SDS011;60055;41.884;12.534;2022-11-14T15:06:20;7.18;;;3.78;;
33413;SDS011;60055;41.884;12.534;2022-11-14T15:08:53;4.80;;;3.50;;
33413;SDS011;60055;41.884;12.534;2022-11-14T15:11:20;7.03;;;3.33;;
33413;SDS011;60055;41.884;12.534;2022-11-14T15:14:17;6.63;;;3.65;;
33413;SDS011;60055;41.884;12.534;2022-11-14T15:16:53;7.00;;;3.40;;
33413;SDS011;60055;41.884;12.534;2022-11-14T15:19:31;8.05;;;4.03;;
33413;SDS011;60055;41.884;12.534;2022-11-14T15:22:17;9.38;;;4.40;;
33413;SDS011;60055;41.884;12.534;2022-11-14T15:25:03;8.10;;;3.78;;
33413;SDS011;60055;41.884;12.534;2022-11-14T15:28:16;7.25;;;4.03;;
33413;SDS011;60055;41.884;12.534;2022-11-14T15:30:58;5.75;;;4.20;;
33413;SDS011;60055;41.884;12.534;2022-11-14T15:33:29;6.53;;;4.55;;
33413;SDS011;60055;41.884;12.534;2022-11-14T15:36:28;7.22;;;3.90;;
33413;SDS011;60055;41.884;12.534;2022-11-14T15:38:57;9.55;;;4.22;;
33413;SDS011;60055;41.884;12.534;2022-11-14T15:41:32;8.13;;;4.05;;
33413;SDS011;60055;41.884;12.534;2022-11-14T15:44:27;6.32;;;4.32;;
33413;SDS011;60055;41.884;12.534;2022-11-14T15:46:55;8.40;;;4.57;;
33413;SDS011;60055;41.884;12.534;2022-11-14T15:52:01;10.25;;;4.05;;
33413;SDS011;60055;41.884;12.534;2022-11-14T15:54:33;8.80;;;4.03;;
33413;SDS011;60055;41.884;12.534;2022-11-14T15:57:10;8.57;;;4.25;;
33413;SDS011;60055;41.884;12.534;2022-11-14T15:59:52;7.50;;;4.00;;
33413;SDS011;60055;41.884;12.534;2022-11-14T16:05:00;7.88;;;3.90;;
33413;SDS011;60055;41.884;12.534;2022-11-14T16:07:29;8.02;;;4.22;;
33413;SDS011;60055;41.884;12.534;2022-11-14T16:09:55;8.10;;;4.80;;
33413;SDS011;60055;41.884;12.534;2022-11-14T16:12:23;7.53;;;4.50;;
33413;SDS011;60055;41.884;12.534;2022-11-14T16:14:59;8.32;;;4.68;;
33413;SDS011;60055;41.884;12.534;2022-11-14T16:17:33;9.00;;;5.15;;
33413;SDS011;60055;41.884;12.534;2022-11-14T16:20:05;9.07;;;5.10;;
33413;SDS011;60055;41.884;12.534;2022-11-14T16:22:40;10.00;;;5.80;;
33413;SDS011;60055;41.884;12.534;2022-11-14T16:25:08;10.88;;;5.15;;
33413;SDS011;60055;41.884;12.534;2022-11-14T16:30:05;12.80;;;5.47;;
33413;SDS011;60055;41.884;12.534;2022-11-14T16:32:38;9.90;;;5.30;;
33413;SDS011;60055;41.884;12.534;2022-11-14T16:35:25;9.90;;;5.18;;
33413;SDS011;60055;41.884;12.534;2022-11-14T16:37:56;14.05;;;6.50;;
33413;SDS011;60055;41.884;12.534;2022-11-14T16:40:23;11.35;;;5.72;;
33413;SDS011;60055;41.884;12.534;2022-11-14T16:42:55;8.35;;;5.47;;
33413;SDS011;60055;41.884;12.534;2022-11-14T16:45:25;9.48;;;5.40;;
33413;SDS011;60055;41.884;12.534;2022-11-14T16:47:54;9.02;;;5.25;;
33413;SDS011;60055;41.884;12.534;2022-11-14T16:50:25;8.88;;;4.85;;
33413;SDS011;60055;41.884;12.534;2022-11-14T16:52:51;8.73;;;5.20;;
33413;SDS011;60055;41.884;12.534;2022-11-14T16:55:20;8.63;;;4.97;;
33413;SDS011;60055;41.884;12.534;2022-11-14T16:58:36;6.90;;;4.68;;
33413;SDS011;60055;41.884;12.534;2022-11-14T17:00:50;31.52;;;18.13;;
33413;SDS011;60055;41.884;12.534;2022-11-14T17:03:15;15.50;;;9.18;;
33413;SDS011;60055;41.884;12.534;2022-11-14T17:05:45;12.48;;;6.85;;
33413;SDS011;60055;41.884;12.534;2022-11-14T17:08:14;10.82;;;6.57;;
33413;SDS011;60055;41.884;12.534;2022-11-14T17:10:41;10.73;;;6.38;;